Terminal Aerodrome Forecast
Issued by NWS

Home | Current Version | Previous Version | Text Only | Print | Product List | Glossary On
Versions: 1 2 3 4 5 6 7 8 9 10 11 12 13 14 15 16 17 18
000
FTUS46 KLOX 281100
TAFWJF
TAF
KWJF 281124Z 2812/2912 22007KT P6SM VCTS SCT060CB BKN100
     FM281500 23012KT P6SM BKN100
     FM282000 24017G25KT P6SM VCTS SCT060CB BKN120
     FM290300 24012KT P6SM BKN120=

USA.gov is the U.S. government's official web portal to all federal, state and local government web resources and services.